createdAt,value
2022-12-06T00:00:00.259Z,18.47
2022-12-06T00:05:09.299Z,17.45
2022-12-06T00:10:14.946Z,17.13
2022-12-06T00:15:20.248Z,16.05
2022-12-06T00:20:28.071Z,13.63
2022-12-06T00:25:33.344Z,13.47
2022-12-06T00:30:40.962Z,17.00
2022-12-06T00:35:58.246Z,16.93
2022-12-06T00:41:05.073Z,17.92
2022-12-06T00:46:13.503Z,17.20
2022-12-06T00:51:23.503Z,14.83
2022-12-06T00:56:29.717Z,18.35
2022-12-06T01:01:36.763Z,14.60
2022-12-06T01:06:44.889Z,19.60
2022-12-06T01:11:50.139Z,13.38
2022-12-06T01:16:55.579Z,19.37
2022-12-06T01:22:04.346Z,17.23
2022-12-06T01:27:10.512Z,18.23
2022-12-06T01:32:15.753Z,19.58
2022-12-06T01:37:23.940Z,21.55
2022-12-06T01:42:29.194Z,16.40
2022-12-06T01:47:38.726Z,15.40
2022-12-06T01:52:54.158Z,20.27
2022-12-06T01:58:05.222Z,18.33
2022-12-06T02:03:15.365Z,16.80
2022-12-06T02:08:23.650Z,18.60
2022-12-06T02:13:30.434Z,23.17
2022-12-06T02:18:41.044Z,22.07
2022-12-06T02:24:19.913Z,20.10
2022-12-06T02:29:45.759Z,20.10
2022-12-06T02:34:58.989Z,18.40
2022-12-06T02:40:09.227Z,16.42
2022-12-06T02:45:18.500Z,21.83
2022-12-06T02:50:31.311Z,19.98
2022-12-06T02:55:37.281Z,24.90
2022-12-06T03:00:44.555Z,20.17
2022-12-06T03:06:10.471Z,23.50
2022-12-06T03:11:16.358Z,19.93
2022-12-06T03:16:28.734Z,26.67
2022-12-06T03:21:40.123Z,24.42
2022-12-06T03:26:49.233Z,27.77
2022-12-06T03:31:56.137Z,24.75
2022-12-06T03:37:07.131Z,30.07
2022-12-06T03:42:13.289Z,21.73
2022-12-06T03:47:24.604Z,24.80
2022-12-06T03:52:33.793Z,26.27
2022-12-06T03:57:39.133Z,25.02
2022-12-06T04:02:44.520Z,24.67
2022-12-06T04:07:52.595Z,22.50
2022-12-06T04:13:05.903Z,21.77
2022-12-06T04:18:14.606Z,22.43
2022-12-06T04:23:24.674Z,24.17
2022-12-06T04:28:43.040Z,23.40
2022-12-06T04:34:00.723Z,21.77
2022-12-06T04:39:09.202Z,22.30
2022-12-06T04:44:14.853Z,26.17
2022-12-06T04:49:20.374Z,26.20
2022-12-06T04:54:30.128Z,24.60
2022-12-06T04:59:35.579Z,24.45
2022-12-06T05:04:41.158Z,25.63
2022-12-06T05:09:48.947Z,23.13
2022-12-06T05:14:54.203Z,27.58
2022-12-06T05:19:59.705Z,31.87
2022-12-06T05:25:08.216Z,25.23
2022-12-06T05:30:14.529Z,22.17
2022-12-06T05:35:19.930Z,28.73
2022-12-06T05:40:27.782Z,32.20
2022-12-06T05:45:33.294Z,26.80
2022-12-06T05:50:39.095Z,29.55
2022-12-06T05:55:47.272Z,32.92
2022-12-06T06:00:53.141Z,26.90
2022-12-06T06:06:01.594Z,25.42
2022-12-06T06:11:09.447Z,34.50
2022-12-06T06:16:14.980Z,31.00
2022-12-06T06:21:20.328Z,29.08
2022-12-06T06:26:28.371Z,31.73
2022-12-06T06:31:33.856Z,29.95
2022-12-06T06:36:44.083Z,24.20
2022-12-06T06:41:53.724Z,27.27
2022-12-06T06:46:59.028Z,32.63
2022-12-06T06:52:04.423Z,24.67
2022-12-06T06:57:17.377Z,29.92
2022-12-06T07:02:23.615Z,30.37
2022-12-06T07:07:28.973Z,24.17
2022-12-06T07:12:37.406Z,28.17
2022-12-06T07:17:42.806Z,25.80
2022-12-06T07:22:48.206Z,25.52
2022-12-06T07:27:56.088Z,27.23
2022-12-06T07:33:01.559Z,29.27
2022-12-06T07:38:06.917Z,29.63
2022-12-06T07:43:27.309Z,31.60
2022-12-06T07:48:35.450Z,25.52
2022-12-06T07:53:40.922Z,30.87
2022-12-06T07:58:49.422Z,28.13
2022-12-06T08:03:56.397Z,32.13
2022-12-06T08:09:02.597Z,35.83
2022-12-06T08:14:10.871Z,32.55
2022-12-06T08:19:16.821Z,33.97
2022-12-06T08:24:22.322Z,29.02
2022-12-06T08:29:30.250Z,30.60
2022-12-06T08:34:36.807Z,32.20
2022-12-06T08:39:42.138Z,28.17
2022-12-06T08:44:54.513Z,36.80
2022-12-06T08:50:00.450Z,30.75
2022-12-06T08:55:06.043Z,31.38
2022-12-06T09:00:16.526Z,30.00
2022-12-06T09:05:21.964Z,33.28
2022-12-06T09:10:27.475Z,24.80
2022-12-06T09:15:35.575Z,28.17
2022-12-06T09:20:42.474Z,25.38
2022-12-06T09:25:47.853Z,23.87
2022-12-06T09:30:55.760Z,26.98
2022-12-06T09:36:02.704Z,26.00
2022-12-06T09:41:21.995Z,23.10
2022-12-06T09:47:14.666Z,16.40
2022-12-06T09:52:50.188Z,12.13
2022-12-06T09:58:01.597Z,13.10
2022-12-06T10:03:32.953Z,9.97
2022-12-06T10:08:58.118Z,12.18
2022-12-06T10:14:15.796Z,10.38
2022-12-06T10:19:39.584Z,14.33
2022-12-06T10:25:00.014Z,12.05
2022-12-06T10:30:10.894Z,11.37
2022-12-06T10:35:24.399Z,15.27
2022-12-06T10:40:46.638Z,13.02
2022-12-06T10:46:09.933Z,11.33
2022-12-06T10:51:21.233Z,14.77
2022-12-06T10:56:32.615Z,9.63
2022-12-06T11:01:43.252Z,11.45
2022-12-06T11:06:54.965Z,12.23
2022-12-06T11:12:03.856Z,11.33
2022-12-06T11:17:17.758Z,12.65
2022-12-06T11:22:34.344Z,12.67
2022-12-06T11:27:48.016Z,16.73
2022-12-06T11:32:55.792Z,14.50
2022-12-06T11:38:05.660Z,13.93
2022-12-06T11:43:18.673Z,12.98
2022-12-06T11:48:28.325Z,10.73
2022-12-06T11:53:38.524Z,11.15
2022-12-06T11:58:53.848Z,9.30
2022-12-06T12:03:59.627Z,8.47
2022-12-06T12:09:07.962Z,5.63
2022-12-06T12:14:21.796Z,8.13
2022-12-06T12:19:35.003Z,8.00
2022-12-06T12:30:27.139Z,5.70
2022-12-06T12:35:32.664Z,9.90
2022-12-06T12:40:41.392Z,5.80
2022-12-06T12:46:25.216Z,5.72
2022-12-06T12:51:35.629Z,7.32
2022-12-06T12:56:41.249Z,5.23
2022-12-06T13:01:51.131Z,6.50
2022-12-06T13:12:33.581Z,4.70
2022-12-06T13:17:40.758Z,5.13
2022-12-06T13:22:51.994Z,6.03
2022-12-06T13:28:05.397Z,5.55
2022-12-06T13:33:21.557Z,5.73
2022-12-06T13:38:33.638Z,6.65
2022-12-06T13:43:56.399Z,7.03
2022-12-06T13:49:04.794Z,6.63
2022-12-06T13:54:43.283Z,4.95
2022-12-06T13:59:51.261Z,5.83
2022-12-06T14:04:57.342Z,6.18
2022-12-06T14:10:10.979Z,4.07
2022-12-06T14:15:22.616Z,6.03
2022-12-06T14:20:31.276Z,4.22
2022-12-06T14:25:36.658Z,4.67
2022-12-06T14:30:46.328Z,6.57
2022-12-06T14:35:54.357Z,5.57
2022-12-06T14:41:12.514Z,7.97
2022-12-06T14:46:23.497Z,6.43
2022-12-06T14:51:36.894Z,4.23
2022-12-06T14:56:42.504Z,6.65
2022-12-06T15:01:56.274Z,4.38
2022-12-06T15:07:02.927Z,5.23
2022-12-06T15:12:38.251Z,4.90
2022-12-06T15:17:46.269Z,5.20
2022-12-06T15:22:51.525Z,5.13
2022-12-06T15:27:56.861Z,6.47
2022-12-06T15:33:05.984Z,5.40
2022-12-06T15:38:12.996Z,6.93
2022-12-06T15:43:32.897Z,7.30
2022-12-06T15:48:41.083Z,6.50
2022-12-06T15:53:46.968Z,3.28
2022-12-06T15:58:53.705Z,6.07
2022-12-06T16:04:01.937Z,5.00
2022-12-06T16:09:07.250Z,4.63
2022-12-06T16:14:13.164Z,3.45
2022-12-06T16:19:21.057Z,4.65
2022-12-06T16:24:26.741Z,4.67
2022-12-06T16:29:32.051Z,3.70
2022-12-06T16:34:40.056Z,5.10
2022-12-06T16:39:45.351Z,6.85
2022-12-06T16:44:53.642Z,6.20
2022-12-06T16:50:01.756Z,6.27
2022-12-06T16:55:07.844Z,6.78
2022-12-06T17:00:15.743Z,5.20
2022-12-06T17:05:26.134Z,8.85
2022-12-06T17:10:31.480Z,7.80
2022-12-06T17:15:36.850Z,7.27
2022-12-06T17:20:44.880Z,6.15
2022-12-06T17:25:59.158Z,6.10
2022-12-06T17:31:04.975Z,6.78
2022-12-06T17:36:15.133Z,9.20
2022-12-06T17:41:36.212Z,7.07
2022-12-06T17:46:43.038Z,6.15
2022-12-06T17:51:52.312Z,7.37
2022-12-06T17:56:58.730Z,6.13
2022-12-06T18:02:20.084Z,11.20
2022-12-06T18:07:29.104Z,6.07
2022-12-06T18:12:38.018Z,5.97
2022-12-06T18:17:43.574Z,10.57
2022-12-06T18:22:51.544Z,5.85
2022-12-06T18:27:57.195Z,10.32
2022-12-06T18:33:03.632Z,4.23
2022-12-06T18:38:13.000Z,8.45
2022-12-06T18:43:18.482Z,8.00
2022-12-06T18:48:23.754Z,6.78
2022-12-06T18:53:32.873Z,7.43
2022-12-06T18:58:40.033Z,9.27
2022-12-06T19:03:45.852Z,8.48
2022-12-06T19:08:55.792Z,6.60
2022-12-06T19:14:03.120Z,8.32
2022-12-06T19:19:15.791Z,7.45
2022-12-06T19:24:27.908Z,9.20
2022-12-06T19:29:36.626Z,6.82
2022-12-06T19:34:42.889Z,10.63
2022-12-06T19:39:51.256Z,10.80
2022-12-06T19:44:56.627Z,11.52
2022-12-06T19:50:02.485Z,9.97
2022-12-06T19:55:11.770Z,9.27
2022-12-06T20:00:22.607Z,13.57
2022-12-06T20:05:28.319Z,9.05
2022-12-06T20:10:38.208Z,11.75
2022-12-06T20:15:43.931Z,10.83
2022-12-06T20:20:50.870Z,12.95
2022-12-06T20:26:02.277Z,9.93
2022-12-06T20:31:13.252Z,10.48
2022-12-06T20:36:21.558Z,12.50
2022-12-06T20:41:34.307Z,11.00
2022-12-06T20:46:39.830Z,11.43
2022-12-06T20:51:51.101Z,11.33
2022-12-06T20:57:00.477Z,11.20
2022-12-06T21:02:06.120Z,12.70
2022-12-06T21:07:11.625Z,11.87
2022-12-06T21:12:20.276Z,12.55
2022-12-06T21:17:25.561Z,11.47
2022-12-06T21:22:31.794Z,13.40
2022-12-06T21:27:39.790Z,12.02
2022-12-06T21:32:45.158Z,11.83
2022-12-06T21:37:50.624Z,16.20
2022-12-06T21:42:58.753Z,17.97
2022-12-06T21:48:04.657Z,16.75
2022-12-06T21:53:10.030Z,16.80
2022-12-06T21:58:18.445Z,14.43
2022-12-06T22:03:23.858Z,13.82
2022-12-06T22:08:30.271Z,17.90
2022-12-06T22:13:39.002Z,13.50
2022-12-06T22:18:46.469Z,16.40
2022-12-06T22:23:57.548Z,13.87
2022-12-06T22:29:05.565Z,14.70
2022-12-06T22:34:12.565Z,11.30
2022-12-06T22:39:18.670Z,16.88
2022-12-06T22:44:26.606Z,18.15
2022-12-06T22:49:31.885Z,15.90
2022-12-06T22:54:38.681Z,16.08
2022-12-06T22:59:46.760Z,15.70
2022-12-06T23:04:52.488Z,16.05
2022-12-06T23:09:57.754Z,16.70
2022-12-06T23:15:06.620Z,16.20
2022-12-06T23:20:12.681Z,14.98
2022-12-06T23:25:18.142Z,16.53
2022-12-06T23:30:25.962Z,14.93
2022-12-06T23:35:31.235Z,16.05
2022-12-06T23:40:36.764Z,15.60
2022-12-06T23:45:44.771Z,14.60
2022-12-06T23:50:50.069Z,13.87
2022-12-06T23:55:55.312Z,14.35
